sensor_id;sensor_type;location;lat;lon;timestamp;P1;durP1;ratioP1;P2;durP2;ratioP2
53666;SDS011;39568;51.026;5.468;2022-10-14T00:02:07;20.67;;;13.27;;
53666;SDS011;39568;51.026;5.468;2022-10-14T00:04:35;23.35;;;11.65;;
53666;SDS011;39568;51.026;5.468;2022-10-14T00:07:02;30.10;;;13.43;;
53666;SDS011;39568;51.026;5.468;2022-10-14T00:09:29;22.90;;;11.35;;
53666;SDS011;39568;51.026;5.468;2022-10-14T00:11:56;18.40;;;12.07;;
53666;SDS011;39568;51.026;5.468;2022-10-14T00:14:23;20.85;;;11.80;;
53666;SDS011;39568;51.026;5.468;2022-10-14T00:16:51;19.85;;;12.32;;
53666;SDS011;39568;51.026;5.468;2022-10-14T00:19:19;19.13;;;11.98;;
53666;SDS011;39568;51.026;5.468;2022-10-14T00:21:50;19.95;;;11.25;;
53666;SDS011;39568;51.026;5.468;2022-10-14T00:24:23;32.58;;;12.48;;
53666;SDS011;39568;51.026;5.468;2022-10-14T00:26:50;16.83;;;10.93;;
53666;SDS011;39568;51.026;5.468;2022-10-14T00:29:17;18.80;;;11.20;;
53666;SDS011;39568;51.026;5.468;2022-10-14T00:31:48;15.10;;;10.68;;
53666;SDS011;39568;51.026;5.468;2022-10-14T00:34:15;19.02;;;10.77;;
53666;SDS011;39568;51.026;5.468;2022-10-14T00:36:42;17.15;;;11.43;;
53666;SDS011;39568;51.026;5.468;2022-10-14T00:39:11;17.63;;;10.43;;
53666;SDS011;39568;51.026;5.468;2022-10-14T00:41:37;18.02;;;10.60;;
53666;SDS011;39568;51.026;5.468;2022-10-14T00:44:05;27.60;;;10.90;;
53666;SDS011;39568;51.026;5.468;2022-10-14T00:46:54;17.40;;;9.48;;
53666;SDS011;39568;51.026;5.468;2022-10-14T00:49:22;20.90;;;11.98;;
53666;SDS011;39568;51.026;5.468;2022-10-14T00:51:53;19.48;;;11.73;;
53666;SDS011;39568;51.026;5.468;2022-10-14T00:54:24;17.33;;;10.30;;
53666;SDS011;39568;51.026;5.468;2022-10-14T00:56:55;17.92;;;8.90;;
53666;SDS011;39568;51.026;5.468;2022-10-14T00:59:22;19.55;;;9.68;;
53666;SDS011;39568;51.026;5.468;2022-10-14T01:01:50;18.42;;;9.77;;
53666;SDS011;39568;51.026;5.468;2022-10-14T01:04:18;15.60;;;10.02;;
53666;SDS011;39568;51.026;5.468;2022-10-14T01:06:57;16.55;;;10.02;;
53666;SDS011;39568;51.026;5.468;2022-10-14T01:09:32;16.25;;;8.70;;
53666;SDS011;39568;51.026;5.468;2022-10-14T01:12:05;28.08;;;11.32;;
53666;SDS011;39568;51.026;5.468;2022-10-14T01:14:41;17.33;;;10.40;;
53666;SDS011;39568;51.026;5.468;2022-10-14T01:17:17;18.05;;;10.00;;
53666;SDS011;39568;51.026;5.468;2022-10-14T01:20:06;15.52;;;9.38;;
53666;SDS011;39568;51.026;5.468;2022-10-14T01:22:51;16.88;;;10.38;;
53666;SDS011;39568;51.026;5.468;2022-10-14T01:25:32;18.23;;;9.70;;
53666;SDS011;39568;51.026;5.468;2022-10-14T01:28:08;17.50;;;10.80;;
53666;SDS011;39568;51.026;5.468;2022-10-14T01:30:47;14.55;;;8.80;;
53666;SDS011;39568;51.026;5.468;2022-10-14T01:33:16;13.35;;;9.63;;
53666;SDS011;39568;51.026;5.468;2022-10-14T01:35:49;22.70;;;9.80;;
53666;SDS011;39568;51.026;5.468;2022-10-14T01:38:26;17.88;;;9.82;;
53666;SDS011;39568;51.026;5.468;2022-10-14T01:43:24;16.60;;;10.40;;
53666;SDS011;39568;51.026;5.468;2022-10-14T01:45:54;15.70;;;8.63;;
53666;SDS011;39568;51.026;5.468;2022-10-14T01:48:24;21.48;;;8.90;;
53666;SDS011;39568;51.026;5.468;2022-10-14T01:50:55;14.18;;;9.15;;
53666;SDS011;39568;51.026;5.468;2022-10-14T01:53:25;15.70;;;8.18;;
53666;SDS011;39568;51.026;5.468;2022-10-14T01:55:56;16.85;;;7.65;;
53666;SDS011;39568;51.026;5.468;2022-10-14T01:58:25;13.25;;;8.93;;
53666;SDS011;39568;51.026;5.468;2022-10-14T02:00:59;14.05;;;7.53;;
53666;SDS011;39568;51.026;5.468;2022-10-14T02:03:36;14.88;;;7.13;;
53666;SDS011;39568;51.026;5.468;2022-10-14T02:06:04;10.52;;;7.05;;
53666;SDS011;39568;51.026;5.468;2022-10-14T02:08:35;8.23;;;6.45;;
53666;SDS011;39568;51.026;5.468;2022-10-14T02:11:13;10.48;;;7.50;;
53666;SDS011;39568;51.026;5.468;2022-10-14T02:13:49;16.15;;;7.45;;
53666;SDS011;39568;51.026;5.468;2022-10-14T02:16:27;16.17;;;7.57;;
53666;SDS011;39568;51.026;5.468;2022-10-14T02:19:04;8.65;;;5.68;;
53666;SDS011;39568;51.026;5.468;2022-10-14T02:21:36;8.85;;;6.78;;
53666;SDS011;39568;51.026;5.468;2022-10-14T02:24:08;13.23;;;6.82;;
53666;SDS011;39568;51.026;5.468;2022-10-14T02:26:39;9.57;;;6.70;;
53666;SDS011;39568;51.026;5.468;2022-10-14T02:29:07;14.75;;;7.40;;
53666;SDS011;39568;51.026;5.468;2022-10-14T02:31:36;14.63;;;7.55;;
53666;SDS011;39568;51.026;5.468;2022-10-14T02:34:06;10.27;;;6.57;;
53666;SDS011;39568;51.026;5.468;2022-10-14T02:36:36;8.10;;;6.22;;
53666;SDS011;39568;51.026;5.468;2022-10-14T02:39:07;13.95;;;7.90;;
53666;SDS011;39568;51.026;5.468;2022-10-14T02:41:36;10.35;;;6.90;;
53666;SDS011;39568;51.026;5.468;2022-10-14T02:44:03;10.23;;;6.72;;
53666;SDS011;39568;51.026;5.468;2022-10-14T02:46:31;11.15;;;7.70;;
53666;SDS011;39568;51.026;5.468;2022-10-14T02:49:03;10.02;;;6.18;;
53666;SDS011;39568;51.026;5.468;2022-10-14T02:51:30;11.75;;;7.40;;
53666;SDS011;39568;51.026;5.468;2022-10-14T02:53:56;9.13;;;7.00;;
53666;SDS011;39568;51.026;5.468;2022-10-14T02:56:31;10.95;;;7.22;;
53666;SDS011;39568;51.026;5.468;2022-10-14T02:58:58;11.88;;;7.13;;
53666;SDS011;39568;51.026;5.468;2022-10-14T03:01:24;12.65;;;6.78;;
53666;SDS011;39568;51.026;5.468;2022-10-14T03:03:51;20.98;;;7.38;;
53666;SDS011;39568;51.026;5.468;2022-10-14T03:06:20;9.55;;;6.95;;
53666;SDS011;39568;51.026;5.468;2022-10-14T03:08:50;14.45;;;7.30;;
53666;SDS011;39568;51.026;5.468;2022-10-14T03:11:16;7.25;;;6.55;;
53666;SDS011;39568;51.026;5.468;2022-10-14T03:13:43;10.55;;;7.07;;
53666;SDS011;39568;51.026;5.468;2022-10-14T03:16:10;10.40;;;6.63;;
53666;SDS011;39568;51.026;5.468;2022-10-14T03:18:37;13.13;;;7.53;;
53666;SDS011;39568;51.026;5.468;2022-10-14T03:21:12;18.85;;;8.13;;
53666;SDS011;39568;51.026;5.468;2022-10-14T03:23:41;12.00;;;8.02;;
53666;SDS011;39568;51.026;5.468;2022-10-14T03:26:07;8.88;;;7.13;;
53666;SDS011;39568;51.026;5.468;2022-10-14T03:28:34;11.07;;;7.45;;
53666;SDS011;39568;51.026;5.468;2022-10-14T03:31:01;9.00;;;7.03;;
53666;SDS011;39568;51.026;5.468;2022-10-14T03:33:29;10.23;;;6.50;;
53666;SDS011;39568;51.026;5.468;2022-10-14T03:35:55;11.13;;;6.78;;
53666;SDS011;39568;51.026;5.468;2022-10-14T03:38:22;10.63;;;6.72;;
53666;SDS011;39568;51.026;5.468;2022-10-14T03:40:50;6.75;;;6.15;;
53666;SDS011;39568;51.026;5.468;2022-10-14T03:43:18;10.20;;;7.10;;
53666;SDS011;39568;51.026;5.468;2022-10-14T03:45:44;13.40;;;5.90;;
53666;SDS011;39568;51.026;5.468;2022-10-14T03:48:11;9.70;;;7.53;;
53666;SDS011;39568;51.026;5.468;2022-10-14T03:50:38;11.98;;;6.85;;
53666;SDS011;39568;51.026;5.468;2022-10-14T03:53:05;10.20;;;6.55;;
53666;SDS011;39568;51.026;5.468;2022-10-14T03:55:36;10.68;;;7.03;;
53666;SDS011;39568;51.026;5.468;2022-10-14T03:58:04;9.43;;;6.50;;
53666;SDS011;39568;51.026;5.468;2022-10-14T04:00:31;14.27;;;7.13;;
53666;SDS011;39568;51.026;5.468;2022-10-14T04:03:00;13.15;;;7.80;;
53666;SDS011;39568;51.026;5.468;2022-10-14T04:05:27;8.30;;;7.45;;
53666;SDS011;39568;51.026;5.468;2022-10-14T04:07:58;17.20;;;6.38;;
53666;SDS011;39568;51.026;5.468;2022-10-14T04:10:26;11.13;;;7.47;;
53666;SDS011;39568;51.026;5.468;2022-10-14T04:12:53;9.82;;;6.75;;
53666;SDS011;39568;51.026;5.468;2022-10-14T04:15:23;11.70;;;7.78;;
53666;SDS011;39568;51.026;5.468;2022-10-14T04:17:50;10.20;;;7.20;;
53666;SDS011;39568;51.026;5.468;2022-10-14T04:20:17;16.65;;;8.32;;
53666;SDS011;39568;51.026;5.468;2022-10-14T04:22:44;14.95;;;8.48;;
53666;SDS011;39568;51.026;5.468;2022-10-14T04:25:11;10.32;;;8.43;;
53666;SDS011;39568;51.026;5.468;2022-10-14T04:27:37;10.00;;;7.97;;
53666;SDS011;39568;51.026;5.468;2022-10-14T04:30:04;10.73;;;8.15;;
53666;SDS011;39568;51.026;5.468;2022-10-14T04:32:33;9.13;;;7.22;;
53666;SDS011;39568;51.026;5.468;2022-10-14T04:35:00;9.68;;;7.47;;
53666;SDS011;39568;51.026;5.468;2022-10-14T04:37:27;6.90;;;6.20;;
53666;SDS011;39568;51.026;5.468;2022-10-14T04:39:55;9.45;;;6.53;;
53666;SDS011;39568;51.026;5.468;2022-10-14T04:42:29;8.35;;;7.53;;
53666;SDS011;39568;51.026;5.468;2022-10-14T04:44:56;7.75;;;7.05;;
53666;SDS011;39568;51.026;5.468;2022-10-14T04:49:55;7.93;;;6.80;;
53666;SDS011;39568;51.026;5.468;2022-10-14T04:52:22;9.10;;;7.00;;
53666;SDS011;39568;51.026;5.468;2022-10-14T04:54:49;8.45;;;7.38;;
53666;SDS011;39568;51.026;5.468;2022-10-14T04:57:15;9.75;;;7.00;;
53666;SDS011;39568;51.026;5.468;2022-10-14T04:59:42;11.68;;;8.05;;
53666;SDS011;39568;51.026;5.468;2022-10-14T05:02:08;16.23;;;10.80;;
53666;SDS011;39568;51.026;5.468;2022-10-14T05:04:35;19.13;;;11.80;;
53666;SDS011;39568;51.026;5.468;2022-10-14T05:07:03;40.78;;;30.83;;
53666;SDS011;39568;51.026;5.468;2022-10-14T05:09:30;14.05;;;10.13;;
53666;SDS011;39568;51.026;5.468;2022-10-14T05:11:57;20.60;;;13.13;;
53666;SDS011;39568;51.026;5.468;2022-10-14T05:14:24;24.42;;;15.80;;
53666;SDS011;39568;51.026;5.468;2022-10-14T05:16:50;13.23;;;8.05;;
53666;SDS011;39568;51.026;5.468;2022-10-14T05:19:17;13.65;;;9.82;;
53666;SDS011;39568;51.026;5.468;2022-10-14T05:21:44;16.30;;;10.30;;
53666;SDS011;39568;51.026;5.468;2022-10-14T05:24:12;10.70;;;8.70;;
53666;SDS011;39568;51.026;5.468;2022-10-14T05:26:39;17.42;;;11.75;;
53666;SDS011;39568;51.026;5.468;2022-10-14T05:29:05;26.63;;;21.33;;
53666;SDS011;39568;51.026;5.468;2022-10-14T05:31:32;17.60;;;9.80;;
53666;SDS011;39568;51.026;5.468;2022-10-14T05:33:59;16.67;;;9.52;;
53666;SDS011;39568;51.026;5.468;2022-10-14T05:36:29;16.13;;;10.38;;
53666;SDS011;39568;51.026;5.468;2022-10-14T05:38:56;15.98;;;11.02;;
53666;SDS011;39568;51.026;5.468;2022-10-14T05:41:24;13.32;;;10.15;;
53666;SDS011;39568;51.026;5.468;2022-10-14T05:43:57;19.42;;;11.27;;
53666;SDS011;39568;51.026;5.468;2022-10-14T05:46:23;21.92;;;11.35;;
53666;SDS011;39568;51.026;5.468;2022-10-14T05:48:56;13.25;;;11.45;;
53666;SDS011;39568;51.026;5.468;2022-10-14T05:51:24;15.07;;;12.38;;
53666;SDS011;39568;51.026;5.468;2022-10-14T05:53:51;18.92;;;12.13;;
53666;SDS011;39568;51.026;5.468;2022-10-14T05:56:18;18.00;;;12.35;;
53666;SDS011;39568;51.026;5.468;2022-10-14T05:58:46;15.35;;;12.68;;
53666;SDS011;39568;51.026;5.468;2022-10-14T06:01:12;16.67;;;13.05;;
53666;SDS011;39568;51.026;5.468;2022-10-14T06:03:39;22.70;;;11.93;;
53666;SDS011;39568;51.026;5.468;2022-10-14T06:06:06;15.98;;;11.60;;
53666;SDS011;39568;51.026;5.468;2022-10-14T06:11:04;21.00;;;10.77;;
53666;SDS011;39568;51.026;5.468;2022-10-14T06:13:34;26.40;;;12.02;;
53666;SDS011;39568;51.026;5.468;2022-10-14T06:16:04;19.02;;;11.73;;
53666;SDS011;39568;51.026;5.468;2022-10-14T06:18:32;15.02;;;11.18;;
53666;SDS011;39568;51.026;5.468;2022-10-14T06:20:59;12.30;;;9.82;;
53666;SDS011;39568;51.026;5.468;2022-10-14T06:23:26;14.63;;;10.20;;
53666;SDS011;39568;51.026;5.468;2022-10-14T06:25:53;14.27;;;11.48;;
53666;SDS011;39568;51.026;5.468;2022-10-14T06:28:23;18.58;;;10.70;;
53666;SDS011;39568;51.026;5.468;2022-10-14T06:30:49;15.90;;;9.90;;
53666;SDS011;39568;51.026;5.468;2022-10-14T06:33:20;14.65;;;9.27;;
53666;SDS011;39568;51.026;5.468;2022-10-14T06:35:52;12.95;;;8.90;;
53666;SDS011;39568;51.026;5.468;2022-10-14T06:38:18;13.77;;;8.77;;
53666;SDS011;39568;51.026;5.468;2022-10-14T06:40:45;11.68;;;8.15;;
53666;SDS011;39568;51.026;5.468;2022-10-14T06:43:11;13.88;;;7.65;;
53666;SDS011;39568;51.026;5.468;2022-10-14T06:45:38;12.85;;;8.98;;
53666;SDS011;39568;51.026;5.468;2022-10-14T06:48:05;12.23;;;7.95;;
53666;SDS011;39568;51.026;5.468;2022-10-14T06:50:36;11.85;;;8.63;;
53666;SDS011;39568;51.026;5.468;2022-10-14T06:53:09;12.70;;;9.18;;
53666;SDS011;39568;51.026;5.468;2022-10-14T06:55:36;14.95;;;9.07;;
53666;SDS011;39568;51.026;5.468;2022-10-14T06:58:02;14.05;;;9.10;;
53666;SDS011;39568;51.026;5.468;2022-10-14T07:00:29;10.05;;;7.75;;
53666;SDS011;39568;51.026;5.468;2022-10-14T07:02:56;9.07;;;7.65;;
53666;SDS011;39568;51.026;5.468;2022-10-14T07:05:24;12.60;;;7.78;;
53666;SDS011;39568;51.026;5.468;2022-10-14T07:07:52;19.20;;;8.13;;
53666;SDS011;39568;51.026;5.468;2022-10-14T07:12:52;9.85;;;6.75;;
53666;SDS011;39568;51.026;5.468;2022-10-14T07:15:23;10.77;;;6.90;;
53666;SDS011;39568;51.026;5.468;2022-10-14T07:17:50;9.45;;;7.53;;
53666;SDS011;39568;51.026;5.468;2022-10-14T07:20:16;10.15;;;6.85;;
53666;SDS011;39568;51.026;5.468;2022-10-14T07:22:43;13.63;;;8.07;;
53666;SDS011;39568;51.026;5.468;2022-10-14T07:25:11;9.27;;;5.90;;
53666;SDS011;39568;51.026;5.468;2022-10-14T07:27:38;8.02;;;6.95;;
53666;SDS011;39568;51.026;5.468;2022-10-14T07:30:08;6.70;;;6.07;;
53666;SDS011;39568;51.026;5.468;2022-10-14T07:32:35;9.80;;;6.63;;
53666;SDS011;39568;51.026;5.468;2022-10-14T07:35:02;11.70;;;7.35;;
53666;SDS011;39568;51.026;5.468;2022-10-14T07:37:30;7.13;;;6.40;;
53666;SDS011;39568;51.026;5.468;2022-10-14T07:39:56;12.98;;;7.35;;
53666;SDS011;39568;51.026;5.468;2022-10-14T07:42:24;9.38;;;6.32;;
53666;SDS011;39568;51.026;5.468;2022-10-14T07:44:53;7.32;;;5.18;;
53666;SDS011;39568;51.026;5.468;2022-10-14T07:47:21;9.70;;;5.82;;
53666;SDS011;39568;51.026;5.468;2022-10-14T07:49:49;9.02;;;5.57;;
53666;SDS011;39568;51.026;5.468;2022-10-14T07:52:16;15.07;;;6.93;;
53666;SDS011;39568;51.026;5.468;2022-10-14T07:54:44;9.68;;;6.38;;
53666;SDS011;39568;51.026;5.468;2022-10-14T07:57:11;12.52;;;6.50;;
53666;SDS011;39568;51.026;5.468;2022-10-14T07:59:39;14.73;;;6.55;;
53666;SDS011;39568;51.026;5.468;2022-10-14T08:02:19;10.23;;;7.65;;
53666;SDS011;39568;51.026;5.468;2022-10-14T08:04:50;7.95;;;6.57;;
53666;SDS011;39568;51.026;5.468;2022-10-14T08:07:17;7.18;;;5.88;;
53666;SDS011;39568;51.026;5.468;2022-10-14T08:09:44;11.57;;;6.55;;
53666;SDS011;39568;51.026;5.468;2022-10-14T08:12:11;11.40;;;6.97;;
53666;SDS011;39568;51.026;5.468;2022-10-14T08:14:40;11.90;;;7.50;;
53666;SDS011;39568;51.026;5.468;2022-10-14T08:17:06;11.00;;;6.00;;
53666;SDS011;39568;51.026;5.468;2022-10-14T08:19:33;11.38;;;6.95;;
53666;SDS011;39568;51.026;5.468;2022-10-14T08:21:59;7.35;;;6.13;;
53666;SDS011;39568;51.026;5.468;2022-10-14T08:24:28;7.53;;;5.82;;
53666;SDS011;39568;51.026;5.468;2022-10-14T08:26:56;8.88;;;7.22;;
53666;SDS011;39568;51.026;5.468;2022-10-14T08:29:25;11.07;;;7.45;;
53666;SDS011;39568;51.026;5.468;2022-10-14T08:31:53;8.85;;;6.68;;
53666;SDS011;39568;51.026;5.468;2022-10-14T08:34:19;8.70;;;6.75;;
53666;SDS011;39568;51.026;5.468;2022-10-14T08:36:49;7.57;;;6.32;;
53666;SDS011;39568;51.026;5.468;2022-10-14T08:39:32;9.55;;;7.72;;
53666;SDS011;39568;51.026;5.468;2022-10-14T08:42:09;15.48;;;8.52;;
53666;SDS011;39568;51.026;5.468;2022-10-14T08:44:46;12.55;;;7.32;;
53666;SDS011;39568;51.026;5.468;2022-10-14T08:47:21;9.40;;;7.07;;
53666;SDS011;39568;51.026;5.468;2022-10-14T08:49:56;8.07;;;6.85;;
53666;SDS011;39568;51.026;5.468;2022-10-14T08:52:32;7.47;;;6.78;;
53666;SDS011;39568;51.026;5.468;2022-10-14T08:55:02;8.68;;;7.20;;
53666;SDS011;39568;51.026;5.468;2022-10-14T08:57:40;9.90;;;7.30;;
53666;SDS011;39568;51.026;5.468;2022-10-14T09:00:13;14.07;;;7.82;;
53666;SDS011;39568;51.026;5.468;2022-10-14T09:02:46;11.40;;;7.45;;
53666;SDS011;39568;51.026;5.468;2022-10-14T09:05:16;15.48;;;10.68;;
53666;SDS011;39568;51.026;5.468;2022-10-14T09:07:45;18.98;;;7.90;;
53666;SDS011;39568;51.026;5.468;2022-10-14T09:10:14;11.10;;;7.93;;
53666;SDS011;39568;51.026;5.468;2022-10-14T09:12:54;7.70;;;6.95;;
53666;SDS011;39568;51.026;5.468;2022-10-14T09:15:25;16.38;;;12.93;;
53666;SDS011;39568;51.026;5.468;2022-10-14T09:18:00;9.50;;;7.40;;
53666;SDS011;39568;51.026;5.468;2022-10-14T09:20:30;13.30;;;8.20;;
53666;SDS011;39568;51.026;5.468;2022-10-14T09:23:01;10.05;;;7.78;;
53666;SDS011;39568;51.026;5.468;2022-10-14T09:25:39;8.82;;;7.70;;
53666;SDS011;39568;51.026;5.468;2022-10-14T09:28:10;8.00;;;7.18;;
53666;SDS011;39568;51.026;5.468;2022-10-14T09:30:37;8.18;;;7.32;;
53666;SDS011;39568;51.026;5.468;2022-10-14T09:33:06;10.77;;;6.68;;
53666;SDS011;39568;51.026;5.468;2022-10-14T09:35:43;11.88;;;7.18;;
53666;SDS011;39568;51.026;5.468;2022-10-14T09:38:10;6.82;;;5.97;;
53666;SDS011;39568;51.026;5.468;2022-10-14T09:40:42;7.82;;;5.97;;
53666;SDS011;39568;51.026;5.468;2022-10-14T09:43:13;8.75;;;6.22;;
53666;SDS011;39568;51.026;5.468;2022-10-14T09:45:46;6.40;;;5.82;;
53666;SDS011;39568;51.026;5.468;2022-10-14T09:48:17;5.53;;;5.13;;
53666;SDS011;39568;51.026;5.468;2022-10-14T09:50:48;10.80;;;5.28;;
53666;SDS011;39568;51.026;5.468;2022-10-14T09:53:17;9.38;;;6.57;;
53666;SDS011;39568;51.026;5.468;2022-10-14T09:55:53;6.90;;;6.30;;
53666;SDS011;39568;51.026;5.468;2022-10-14T09:58:24;5.63;;;4.47;;
53666;SDS011;39568;51.026;5.468;2022-10-14T10:00:56;7.32;;;5.47;;
53666;SDS011;39568;51.026;5.468;2022-10-14T10:03:26;5.50;;;4.95;;
53666;SDS011;39568;51.026;5.468;2022-10-14T10:06:00;5.18;;;4.75;;
53666;SDS011;39568;51.026;5.468;2022-10-14T10:08:30;8.60;;;6.03;;
53666;SDS011;39568;51.026;5.468;2022-10-14T10:11:01;7.75;;;5.50;;
53666;SDS011;39568;51.026;5.468;2022-10-14T10:13:33;9.60;;;6.25;;
53666;SDS011;39568;51.026;5.468;2022-10-14T10:16:16;7.70;;;5.25;;
53666;SDS011;39568;51.026;5.468;2022-10-14T10:18:46;7.53;;;5.72;;
53666;SDS011;39568;51.026;5.468;2022-10-14T10:21:15;8.55;;;5.65;;
53666;SDS011;39568;51.026;5.468;2022-10-14T10:23:49;16.23;;;10.02;;
53666;SDS011;39568;51.026;5.468;2022-10-14T10:26:18;9.82;;;3.83;;
53666;SDS011;39568;51.026;5.468;2022-10-14T10:28:50;7.55;;;5.38;;
53666;SDS011;39568;51.026;5.468;2022-10-14T10:31:18;7.25;;;5.05;;
53666;SDS011;39568;51.026;5.468;2022-10-14T10:33:58;7.18;;;5.60;;
53666;SDS011;39568;51.026;5.468;2022-10-14T10:36:41;7.03;;;5.88;;
53666;SDS011;39568;51.026;5.468;2022-10-14T10:39:15;11.00;;;8.13;;
53666;SDS011;39568;51.026;5.468;2022-10-14T10:41:52;11.73;;;8.88;;
53666;SDS011;39568;51.026;5.468;2022-10-14T10:47:23;36.28;;;21.52;;
53666;SDS011;39568;51.026;5.468;2022-10-14T10:50:05;35.97;;;21.63;;
53666;SDS011;39568;51.026;5.468;2022-10-14T10:53:04;5.47;;;5.00;;
53666;SDS011;39568;51.026;5.468;2022-10-14T10:55:56;37.97;;;21.50;;
53666;SDS011;39568;51.026;5.468;2022-10-14T10:58:39;34.08;;;21.60;;
53666;SDS011;39568;51.026;5.468;2022-10-14T11:01:20;31.52;;;17.90;;
53666;SDS011;39568;51.026;5.468;2022-10-14T11:04:03;42.08;;;23.20;;
53666;SDS011;39568;51.026;5.468;2022-10-14T11:06:43;33.88;;;21.90;;
53666;SDS011;39568;51.026;5.468;2022-10-14T11:09:38;6.22;;;5.57;;
53666;SDS011;39568;51.026;5.468;2022-10-14T11:12:27;6.70;;;6.00;;
53666;SDS011;39568;51.026;5.468;2022-10-14T11:15:05;4.65;;;3.70;;
53666;SDS011;39568;51.026;5.468;2022-10-14T11:17:51;6.68;;;5.38;;
53666;SDS011;39568;51.026;5.468;2022-10-14T11:20:25;6.57;;;4.93;;
53666;SDS011;39568;51.026;5.468;2022-10-14T11:23:08;7.50;;;5.07;;
53666;SDS011;39568;51.026;5.468;2022-10-14T11:25:51;4.75;;;4.38;;
53666;SDS011;39568;51.026;5.468;2022-10-14T11:28:22;5.30;;;4.93;;
53666;SDS011;39568;51.026;5.468;2022-10-14T11:30:58;6.55;;;4.43;;
53666;SDS011;39568;51.026;5.468;2022-10-14T11:33:36;3.67;;;3.45;;
53666;SDS011;39568;51.026;5.468;2022-10-14T11:36:15;4.10;;;3.70;;
53666;SDS011;39568;51.026;5.468;2022-10-14T11:39:10;5.00;;;3.70;;
53666;SDS011;39568;51.026;5.468;2022-10-14T11:41:52;10.52;;;8.70;;
53666;SDS011;39568;51.026;5.468;2022-10-14T11:44:31;7.72;;;6.22;;
53666;SDS011;39568;51.026;5.468;2022-10-14T11:47:02;8.95;;;5.43;;
53666;SDS011;39568;51.026;5.468;2022-10-14T11:49:38;3.97;;;3.53;;
53666;SDS011;39568;51.026;5.468;2022-10-14T11:52:13;2.63;;;2.42;;
53666;SDS011;39568;51.026;5.468;2022-10-14T11:54:47;2.97;;;2.78;;
53666;SDS011;39568;51.026;5.468;2022-10-14T11:57:20;7.53;;;4.03;;
53666;SDS011;39568;51.026;5.468;2022-10-14T11:59:55;4.15;;;3.75;;
53666;SDS011;39568;51.026;5.468;2022-10-14T12:02:34;6.72;;;2.67;;
53666;SDS011;39568;51.026;5.468;2022-10-14T12:05:08;3.47;;;2.35;;
53666;SDS011;39568;51.026;5.468;2022-10-14T12:07:44;2.88;;;2.78;;
53666;SDS011;39568;51.026;5.468;2022-10-14T12:10:21;2.03;;;1.92;;
53666;SDS011;39568;51.026;5.468;2022-10-14T12:12:54;7.97;;;2.55;;
53666;SDS011;39568;51.026;5.468;2022-10-14T12:15:33;2.38;;;2.28;;
53666;SDS011;39568;51.026;5.468;2022-10-14T12:18:03;2.42;;;2.22;;
53666;SDS011;39568;51.026;5.468;2022-10-14T12:20:33;2.20;;;2.10;;
53666;SDS011;39568;51.026;5.468;2022-10-14T12:23:06;4.60;;;2.70;;
53666;SDS011;39568;51.026;5.468;2022-10-14T12:25:40;3.35;;;2.75;;
53666;SDS011;39568;51.026;5.468;2022-10-14T12:28:13;3.88;;;3.20;;
53666;SDS011;39568;51.026;5.468;2022-10-14T12:30:43;3.58;;;3.05;;
53666;SDS011;39568;51.026;5.468;2022-10-14T12:33:12;7.53;;;3.15;;
53666;SDS011;39568;51.026;5.468;2022-10-14T12:35:45;7.80;;;4.70;;
53666;SDS011;39568;51.026;5.468;2022-10-14T12:38:14;4.18;;;2.42;;
53666;SDS011;39568;51.026;5.468;2022-10-14T12:40:42;4.65;;;2.97;;
53666;SDS011;39568;51.026;5.468;2022-10-14T12:43:16;5.20;;;3.42;;
53666;SDS011;39568;51.026;5.468;2022-10-14T12:45:46;17.13;;;8.20;;
53666;SDS011;39568;51.026;5.468;2022-10-14T12:48:16;4.00;;;3.65;;
53666;SDS011;39568;51.026;5.468;2022-10-14T12:50:46;3.10;;;3.00;;
53666;SDS011;39568;51.026;5.468;2022-10-14T12:53:19;3.00;;;2.90;;
53666;SDS011;39568;51.026;5.468;2022-10-14T12:55:51;3.38;;;3.05;;
53666;SDS011;39568;51.026;5.468;2022-10-14T12:58:29;2.25;;;2.15;;
53666;SDS011;39568;51.026;5.468;2022-10-14T13:01:06;1.90;;;1.80;;
53666;SDS011;39568;51.026;5.468;2022-10-14T13:03:42;2.78;;;2.67;;
53666;SDS011;39568;51.026;5.468;2022-10-14T13:06:30;8.95;;;4.43;;
53666;SDS011;39568;51.026;5.468;2022-10-14T13:09:16;5.95;;;2.88;;
53666;SDS011;39568;51.026;5.468;2022-10-14T13:21:22;3.70;;;3.38;;
53666;SDS011;39568;51.026;5.468;2022-10-14T13:23:57;6.57;;;2.25;;
53666;SDS011;39568;51.026;5.468;2022-10-14T13:26:32;6.43;;;2.67;;
53666;SDS011;39568;51.026;5.468;2022-10-14T13:29:07;4.40;;;2.40;;
53666;SDS011;39568;51.026;5.468;2022-10-14T13:31:43;2.78;;;2.58;;
53666;SDS011;39568;51.026;5.468;2022-10-14T13:34:22;2.90;;;2.72;;
53666;SDS011;39568;51.026;5.468;2022-10-14T13:36:59;3.50;;;3.30;;
53666;SDS011;39568;51.026;5.468;2022-10-14T13:39:31;3.08;;;2.83;;
53666;SDS011;39568;51.026;5.468;2022-10-14T13:42:00;2.00;;;1.90;;
53666;SDS011;39568;51.026;5.468;2022-10-14T13:44:32;6.45;;;2.13;;
53666;SDS011;39568;51.026;5.468;2022-10-14T13:46:59;4.68;;;2.30;;
53666;SDS011;39568;51.026;5.468;2022-10-14T13:49:29;1.70;;;1.60;;
53666;SDS011;39568;51.026;5.468;2022-10-14T13:52:01;3.58;;;1.30;;
53666;SDS011;39568;51.026;5.468;2022-10-14T13:54:32;0.98;;;0.98;;
53666;SDS011;39568;51.026;5.468;2022-10-14T13:57:00;3.15;;;1.00;;
53666;SDS011;39568;51.026;5.468;2022-10-14T13:59:28;0.70;;;0.70;;
53666;SDS011;39568;51.026;5.468;2022-10-14T14:01:56;1.25;;;1.13;;
53666;SDS011;39568;51.026;5.468;2022-10-14T14:04:28;1.40;;;1.00;;
53666;SDS011;39568;51.026;5.468;2022-10-14T14:06:58;2.28;;;1.55;;
53666;SDS011;39568;51.026;5.468;2022-10-14T14:09:26;3.63;;;1.30;;
53666;SDS011;39568;51.026;5.468;2022-10-14T14:11:56;7.75;;;1.40;;
53666;SDS011;39568;51.026;5.468;2022-10-14T14:14:28;5.20;;;1.25;;
53666;SDS011;39568;51.026;5.468;2022-10-14T14:17:03;2.80;;;1.10;;
53666;SDS011;39568;51.026;5.468;2022-10-14T14:19:33;1.05;;;1.05;;
53666;SDS011;39568;51.026;5.468;2022-10-14T14:22:04;1.10;;;1.10;;
53666;SDS011;39568;51.026;5.468;2022-10-14T14:24:33;1.58;;;1.33;;
53666;SDS011;39568;51.026;5.468;2022-10-14T14:27:08;0.80;;;0.80;;
53666;SDS011;39568;51.026;5.468;2022-10-14T14:29:39;3.75;;;0.93;;
53666;SDS011;39568;51.026;5.468;2022-10-14T14:32:10;1.15;;;1.05;;
53666;SDS011;39568;51.026;5.468;2022-10-14T14:34:43;4.60;;;1.00;;
53666;SDS011;39568;51.026;5.468;2022-10-14T14:37:13;6.53;;;1.08;;
53666;SDS011;39568;51.026;5.468;2022-10-14T14:39:42;8.02;;;0.82;;
53666;SDS011;39568;51.026;5.468;2022-10-14T14:42:21;2.55;;;1.08;;
53666;SDS011;39568;51.026;5.468;2022-10-14T14:44:49;1.90;;;1.30;;
53666;SDS011;39568;51.026;5.468;2022-10-14T14:47:16;2.70;;;1.15;;
53666;SDS011;39568;51.026;5.468;2022-10-14T14:49:45;1.95;;;1.83;;
53666;SDS011;39568;51.026;5.468;2022-10-14T14:52:12;2.60;;;2.13;;
53666;SDS011;39568;51.026;5.468;2022-10-14T14:54:44;2.67;;;1.70;;
53666;SDS011;39568;51.026;5.468;2022-10-14T14:57:12;2.70;;;1.90;;
53666;SDS011;39568;51.026;5.468;2022-10-14T14:59:43;2.10;;;1.90;;
53666;SDS011;39568;51.026;5.468;2022-10-14T15:02:18;4.70;;;2.65;;
53666;SDS011;39568;51.026;5.468;2022-10-14T15:04:48;6.00;;;4.22;;
53666;SDS011;39568;51.026;5.468;2022-10-14T15:07:25;3.33;;;3.03;;
53666;SDS011;39568;51.026;5.468;2022-10-14T15:09:52;2.25;;;2.15;;
53666;SDS011;39568;51.026;5.468;2022-10-14T15:12:23;2.40;;;2.20;;
53666;SDS011;39568;51.026;5.468;2022-10-14T15:14:51;9.15;;;2.22;;
53666;SDS011;39568;51.026;5.468;2022-10-14T15:19:51;5.20;;;2.60;;
53666;SDS011;39568;51.026;5.468;2022-10-14T15:22:22;5.63;;;2.45;;
53666;SDS011;39568;51.026;5.468;2022-10-14T15:24:57;3.13;;;2.10;;
53666;SDS011;39568;51.026;5.468;2022-10-14T15:27:29;4.22;;;2.85;;